Dati Storici

Data ora Umidita' aria (%) Temperatura aria (°C) Rad globale (W/m²) Gonioanemometro (°) Tacoanemometro (m/s) Pioggia (mm)
17-10-2012 05:20 92.6 % 10.025 2.412 305.791 0.483 0
17-10-2012 05:10 92.6 % 10.151 2.631 201.178 0.584 0
17-10-2012 05:00 92.5 % 10.249 2.491 1.284 0.202 0
17-10-2012 04:50 92.6 % 10.323 2.363 334.373 1.001 0
17-10-2012 04:40 92.4 % 10.314 2.389 322.592 1.054 0
17-10-2012 04:30 92.3 % 10.377 2.619 326.729 0.404 0
17-10-2012 04:20 92.1 % 10.407 2.619 44.426 1.155 0
17-10-2012 04:10 92.1 % 10.471 2.624 16.117 0.373 0
17-10-2012 04:00 91.4 % 10.37 2.124 288.18 0.873 0
17-10-2012 03:50 90.3 % 10.131 1.995 358.764 0.043 0
17-10-2012 03:40 90.6 % 10.51 2.495 51.071 0.652 0
17-10-2012 03:30 90.3 % 10.601 2.329 327.369 0.523 0
17-10-2012 03:20 90 % 10.674 1.971 343.031 1.001 0
17-10-2012 03:10 89.6 % 10.745 2.009 342.54 0.75 0
17-10-2012 03:00 89.4 % 10.784 1.945 319.397 0.706 0
17-10-2012 02:50 89.1 % 10.765 1.92 320.221 0.434 0
17-10-2012 02:40 89.4 % 10.926 2.266 1.054 0.338 0
17-10-2012 02:30 89.3 % 10.686 1.997 339.551 0.707 0
17-10-2012 02:20 88.5 % 10.466 2.522 356.532 0.16 0
17-10-2012 02:10 87.7 % 10.37 1.984 20.026 -0.001 0

I dati sono presentati in modo automatico a scopo informativo. In seguito a verifica i dati possono subire modifiche o essere invalidati e non riportati negli archivi definitivi.